sensor_id;sensor_type;location;lat;lon;timestamp;P1;durP1;ratioP1;P2;durP2;ratioP2
84796;SDS011;75028;51.374;21.078;2024-02-21T00:00:03;10.27;;;3.72;;
84796;SDS011;75028;51.374;21.078;2024-02-21T00:02:31;6.63;;;3.67;;
84796;SDS011;75028;51.374;21.078;2024-02-21T00:04:57;8.93;;;3.60;;
84796;SDS011;75028;51.374;21.078;2024-02-21T00:07:23;9.73;;;4.28;;
84796;SDS011;75028;51.374;21.078;2024-02-21T00:09:49;9.25;;;3.83;;
84796;SDS011;75028;51.374;21.078;2024-02-21T00:14:41;9.63;;;4.80;;
84796;SDS011;75028;51.374;21.078;2024-02-21T00:17:07;12.20;;;5.53;;
84796;SDS011;75028;51.374;21.078;2024-02-21T00:19:34;15.52;;;5.07;;
84796;SDS011;75028;51.374;21.078;2024-02-21T00:22:00;11.32;;;4.93;;
84796;SDS011;75028;51.374;21.078;2024-02-21T00:24:26;11.93;;;4.20;;
84796;SDS011;75028;51.374;21.078;2024-02-21T00:26:53;13.52;;;5.30;;
84796;SDS011;75028;51.374;21.078;2024-02-21T00:29:19;12.02;;;5.63;;
84796;SDS011;75028;51.374;21.078;2024-02-21T00:31:46;11.15;;;5.20;;
84796;SDS011;75028;51.374;21.078;2024-02-21T00:34:13;15.75;;;5.45;;
84796;SDS011;75028;51.374;21.078;2024-02-21T00:36:39;8.77;;;4.60;;
84796;SDS011;75028;51.374;21.078;2024-02-21T00:39:05;15.65;;;5.45;;
84796;SDS011;75028;51.374;21.078;2024-02-21T00:41:32;11.38;;;5.30;;
84796;SDS011;75028;51.374;21.078;2024-02-21T00:43:58;18.17;;;5.13;;
84796;SDS011;75028;51.374;21.078;2024-02-21T00:46:24;12.15;;;5.18;;
84796;SDS011;75028;51.374;21.078;2024-02-21T00:48:50;10.57;;;5.47;;
84796;SDS011;75028;51.374;21.078;2024-02-21T00:51:16;19.38;;;5.38;;
84796;SDS011;75028;51.374;21.078;2024-02-21T00:53:42;12.15;;;5.82;;
84796;SDS011;75028;51.374;21.078;2024-02-21T00:56:09;10.70;;;5.05;;
84796;SDS011;75028;51.374;21.078;2024-02-21T00:58:35;13.60;;;5.43;;
84796;SDS011;75028;51.374;21.078;2024-02-21T01:01:01;12.60;;;5.32;;
84796;SDS011;75028;51.374;21.078;2024-02-21T01:03:28;10.75;;;4.75;;
84796;SDS011;75028;51.374;21.078;2024-02-21T01:08:20;11.27;;;5.30;;
84796;SDS011;75028;51.374;21.078;2024-02-21T01:10:46;10.90;;;4.63;;
84796;SDS011;75028;51.374;21.078;2024-02-21T01:13:12;11.07;;;5.00;;
84796;SDS011;75028;51.374;21.078;2024-02-21T01:15:38;11.43;;;5.40;;
84796;SDS011;75028;51.374;21.078;2024-02-21T01:18:04;14.75;;;5.43;;
84796;SDS011;75028;51.374;21.078;2024-02-21T01:20:31;10.98;;;4.60;;
84796;SDS011;75028;51.374;21.078;2024-02-21T01:22:57;9.10;;;4.30;;
84796;SDS011;75028;51.374;21.078;2024-02-21T01:25:23;12.32;;;5.05;;
84796;SDS011;75028;51.374;21.078;2024-02-21T01:27:49;9.63;;;4.78;;
84796;SDS011;75028;51.374;21.078;2024-02-21T01:30:15;10.15;;;4.93;;
84796;SDS011;75028;51.374;21.078;2024-02-21T01:32:41;11.20;;;4.50;;
84796;SDS011;75028;51.374;21.078;2024-02-21T01:35:07;12.93;;;4.43;;
84796;SDS011;75028;51.374;21.078;2024-02-21T01:37:33;10.75;;;4.50;;
84796;SDS011;75028;51.374;21.078;2024-02-21T01:42:25;9.48;;;4.25;;
84796;SDS011;75028;51.374;21.078;2024-02-21T01:44:52;10.75;;;4.57;;
84796;SDS011;75028;51.374;21.078;2024-02-21T01:47:18;9.75;;;4.85;;
84796;SDS011;75028;51.374;21.078;2024-02-21T01:52:10;10.90;;;4.32;;
84796;SDS011;75028;51.374;21.078;2024-02-21T01:54:39;13.15;;;4.50;;
84796;SDS011;75028;51.374;21.078;2024-02-21T01:57:06;11.45;;;4.45;;
84796;SDS011;75028;51.374;21.078;2024-02-21T01:59:32;14.30;;;4.90;;
84796;SDS011;75028;51.374;21.078;2024-02-21T02:01:58;13.35;;;5.07;;
84796;SDS011;75028;51.374;21.078;2024-02-21T02:04:26;11.52;;;4.85;;
84796;SDS011;75028;51.374;21.078;2024-02-21T02:06:53;13.38;;;4.45;;
84796;SDS011;75028;51.374;21.078;2024-02-21T02:09:20;9.85;;;4.38;;
84796;SDS011;75028;51.374;21.078;2024-02-21T02:11:46;9.70;;;3.88;;
84796;SDS011;75028;51.374;21.078;2024-02-21T02:14:12;11.30;;;4.65;;
84796;SDS011;75028;51.374;21.078;2024-02-21T02:16:38;11.05;;;4.50;;
84796;SDS011;75028;51.374;21.078;2024-02-21T02:19:05;11.52;;;4.32;;
84796;SDS011;75028;51.374;21.078;2024-02-21T02:21:32;17.58;;;4.68;;
84796;SDS011;75028;51.374;21.078;2024-02-21T02:24:00;9.45;;;3.85;;
84796;SDS011;75028;51.374;21.078;2024-02-21T02:28:53;15.18;;;4.45;;
84796;SDS011;75028;51.374;21.078;2024-02-21T02:31:19;12.50;;;4.60;;
84796;SDS011;75028;51.374;21.078;2024-02-21T02:33:45;7.90;;;4.05;;
84796;SDS011;75028;51.374;21.078;2024-02-21T02:36:11;9.13;;;4.72;;
84796;SDS011;75028;51.374;21.078;2024-02-21T02:38:37;13.30;;;5.00;;
84796;SDS011;75028;51.374;21.078;2024-02-21T02:41:03;9.82;;;4.38;;
84796;SDS011;75028;51.374;21.078;2024-02-21T02:43:29;13.57;;;4.78;;
84796;SDS011;75028;51.374;21.078;2024-02-21T02:45:55;8.82;;;3.90;;
84796;SDS011;75028;51.374;21.078;2024-02-21T02:48:21;8.35;;;4.05;;
84796;SDS011;75028;51.374;21.078;2024-02-21T02:50:47;9.13;;;4.97;;
84796;SDS011;75028;51.374;21.078;2024-02-21T02:53:15;13.95;;;5.05;;
84796;SDS011;75028;51.374;21.078;2024-02-21T02:55:41;12.88;;;5.47;;
84796;SDS011;75028;51.374;21.078;2024-02-21T02:58:07;12.95;;;5.45;;
84796;SDS011;75028;51.374;21.078;2024-02-21T03:00:34;12.13;;;5.80;;
84796;SDS011;75028;51.374;21.078;2024-02-21T03:03:02;12.57;;;5.05;;
84796;SDS011;75028;51.374;21.078;2024-02-21T03:05:31;14.23;;;5.60;;
84796;SDS011;75028;51.374;21.078;2024-02-21T03:10:24;13.40;;;4.07;;
84796;SDS011;75028;51.374;21.078;2024-02-21T03:15:18;16.15;;;5.80;;
84796;SDS011;75028;51.374;21.078;2024-02-21T03:20:11;14.38;;;5.88;;
84796;SDS011;75028;51.374;21.078;2024-02-21T03:22:37;11.00;;;5.53;;
84796;SDS011;75028;51.374;21.078;2024-02-21T03:25:03;13.05;;;6.00;;
84796;SDS011;75028;51.374;21.078;2024-02-21T03:27:30;19.55;;;6.68;;
84796;SDS011;75028;51.374;21.078;2024-02-21T03:29:56;11.98;;;5.68;;
84796;SDS011;75028;51.374;21.078;2024-02-21T03:32:22;22.45;;;6.45;;
84796;SDS011;75028;51.374;21.078;2024-02-21T03:34:48;16.55;;;6.38;;
84796;SDS011;75028;51.374;21.078;2024-02-21T03:37:14;18.92;;;6.35;;
84796;SDS011;75028;51.374;21.078;2024-02-21T03:39:40;14.52;;;6.15;;
84796;SDS011;75028;51.374;21.078;2024-02-21T03:42:07;11.32;;;5.95;;
84796;SDS011;75028;51.374;21.078;2024-02-21T03:44:33;11.20;;;6.03;;
84796;SDS011;75028;51.374;21.078;2024-02-21T03:47:00;16.35;;;5.47;;
84796;SDS011;75028;51.374;21.078;2024-02-21T03:49:26;12.07;;;5.50;;
84796;SDS011;75028;51.374;21.078;2024-02-21T03:51:52;11.60;;;5.88;;
84796;SDS011;75028;51.374;21.078;2024-02-21T03:56:45;10.13;;;5.90;;
84796;SDS011;75028;51.374;21.078;2024-02-21T03:59:13;23.50;;;6.32;;
84796;SDS011;75028;51.374;21.078;2024-02-21T04:04:05;19.80;;;7.68;;
84796;SDS011;75028;51.374;21.078;2024-02-21T04:06:31;26.90;;;10.57;;
84796;SDS011;75028;51.374;21.078;2024-02-21T04:08:57;24.25;;;10.70;;
84796;SDS011;75028;51.374;21.078;2024-02-21T04:13:50;32.03;;;11.05;;
84796;SDS011;75028;51.374;21.078;2024-02-21T04:16:16;29.33;;;12.02;;
84796;SDS011;75028;51.374;21.078;2024-02-21T04:18:43;25.58;;;12.18;;
84796;SDS011;75028;51.374;21.078;2024-02-21T04:21:10;34.53;;;12.85;;
84796;SDS011;75028;51.374;21.078;2024-02-21T04:23:41;21.73;;;10.05;;
84796;SDS011;75028;51.374;21.078;2024-02-21T04:26:07;27.10;;;10.27;;
84796;SDS011;75028;51.374;21.078;2024-02-21T04:28:33;26.83;;;10.45;;
84796;SDS011;75028;51.374;21.078;2024-02-21T04:30:59;23.67;;;9.32;;
84796;SDS011;75028;51.374;21.078;2024-02-21T04:33:25;28.08;;;9.40;;
84796;SDS011;75028;51.374;21.078;2024-02-21T04:38:20;21.50;;;8.23;;
84796;SDS011;75028;51.374;21.078;2024-02-21T04:40:47;20.48;;;7.68;;
84796;SDS011;75028;51.374;21.078;2024-02-21T04:43:12;14.63;;;7.57;;
84796;SDS011;75028;51.374;21.078;2024-02-21T04:45:39;27.30;;;8.23;;
84796;SDS011;75028;51.374;21.078;2024-02-21T04:48:05;20.10;;;7.78;;
84796;SDS011;75028;51.374;21.078;2024-02-21T04:52:57;29.33;;;10.32;;
84796;SDS011;75028;51.374;21.078;2024-02-21T04:55:23;38.63;;;13.35;;
84796;SDS011;75028;51.374;21.078;2024-02-21T04:57:49;28.98;;;11.30;;
84796;SDS011;75028;51.374;21.078;2024-02-21T05:00:15;42.28;;;14.18;;
84796;SDS011;75028;51.374;21.078;2024-02-21T05:02:41;37.30;;;14.40;;
84796;SDS011;75028;51.374;21.078;2024-02-21T05:05:08;31.63;;;13.80;;
84796;SDS011;75028;51.374;21.078;2024-02-21T05:07:34;28.55;;;12.60;;
84796;SDS011;75028;51.374;21.078;2024-02-21T05:10:01;22.25;;;9.38;;
84796;SDS011;75028;51.374;21.078;2024-02-21T05:12:27;22.73;;;9.57;;
84796;SDS011;75028;51.374;21.078;2024-02-21T05:14:53;22.35;;;8.70;;
84796;SDS011;75028;51.374;21.078;2024-02-21T05:17:19;25.08;;;7.88;;
84796;SDS011;75028;51.374;21.078;2024-02-21T05:19:45;15.38;;;7.50;;
84796;SDS011;75028;51.374;21.078;2024-02-21T05:22:11;27.73;;;8.80;;
84796;SDS011;75028;51.374;21.078;2024-02-21T05:24:38;33.47;;;9.13;;
84796;SDS011;75028;51.374;21.078;2024-02-21T05:27:05;22.63;;;8.02;;
84796;SDS011;75028;51.374;21.078;2024-02-21T05:31:58;17.20;;;7.47;;
84796;SDS011;75028;51.374;21.078;2024-02-21T05:34:24;15.32;;;7.32;;
84796;SDS011;75028;51.374;21.078;2024-02-21T05:39:18;16.67;;;7.13;;
84796;SDS011;75028;51.374;21.078;2024-02-21T05:44:10;22.80;;;6.63;;
84796;SDS011;75028;51.374;21.078;2024-02-21T05:46:36;13.25;;;7.47;;
84796;SDS011;75028;51.374;21.078;2024-02-21T05:49:02;18.40;;;8.07;;
84796;SDS011;75028;51.374;21.078;2024-02-21T05:51:32;21.70;;;8.30;;
84796;SDS011;75028;51.374;21.078;2024-02-21T05:53:59;20.00;;;8.27;;
84796;SDS011;75028;51.374;21.078;2024-02-21T05:56:25;21.50;;;7.95;;
84796;SDS011;75028;51.374;21.078;2024-02-21T05:58:51;21.27;;;7.80;;
84796;SDS011;75028;51.374;21.078;2024-02-21T06:01:17;16.73;;;7.68;;
84796;SDS011;75028;51.374;21.078;2024-02-21T06:03:44;20.90;;;8.80;;
84796;SDS011;75028;51.374;21.078;2024-02-21T06:06:09;21.95;;;9.20;;
84796;SDS011;75028;51.374;21.078;2024-02-21T06:08:36;18.25;;;8.85;;
84796;SDS011;75028;51.374;21.078;2024-02-21T06:11:02;17.05;;;8.80;;
84796;SDS011;75028;51.374;21.078;2024-02-21T06:13:28;24.35;;;9.30;;
84796;SDS011;75028;51.374;21.078;2024-02-21T06:15:54;28.52;;;9.70;;
84796;SDS011;75028;51.374;21.078;2024-02-21T06:18:20;29.65;;;10.20;;
84796;SDS011;75028;51.374;21.078;2024-02-21T06:20:47;34.78;;;12.20;;
84796;SDS011;75028;51.374;21.078;2024-02-21T06:25:41;28.13;;;10.32;;
84796;SDS011;75028;51.374;21.078;2024-02-21T06:30:34;23.75;;;10.30;;
84796;SDS011;75028;51.374;21.078;2024-02-21T06:33:00;28.35;;;9.50;;
84796;SDS011;75028;51.374;21.078;2024-02-21T06:35:28;26.58;;;10.57;;
84796;SDS011;75028;51.374;21.078;2024-02-21T06:37:54;21.77;;;9.93;;
84796;SDS011;75028;51.374;21.078;2024-02-21T06:40:21;30.85;;;11.13;;
84796;SDS011;75028;51.374;21.078;2024-02-21T06:42:48;27.60;;;10.50;;
84796;SDS011;75028;51.374;21.078;2024-02-21T06:45:15;28.38;;;10.82;;
84796;SDS011;75028;51.374;21.078;2024-02-21T06:47:42;27.38;;;11.07;;
84796;SDS011;75028;51.374;21.078;2024-02-21T06:50:09;24.73;;;11.48;;
84796;SDS011;75028;51.374;21.078;2024-02-21T06:52:36;30.63;;;11.10;;
84796;SDS011;75028;51.374;21.078;2024-02-21T06:55:02;27.83;;;10.93;;
84796;SDS011;75028;51.374;21.078;2024-02-21T06:57:29;21.25;;;10.05;;
84796;SDS011;75028;51.374;21.078;2024-02-21T07:02:21;24.02;;;10.25;;
84796;SDS011;75028;51.374;21.078;2024-02-21T07:04:47;33.05;;;11.10;;
84796;SDS011;75028;51.374;21.078;2024-02-21T07:09:39;32.78;;;11.02;;
84796;SDS011;75028;51.374;21.078;2024-02-21T07:12:06;28.90;;;10.20;;
84796;SDS011;75028;51.374;21.078;2024-02-21T07:14:32;28.75;;;9.73;;
84796;SDS011;75028;51.374;21.078;2024-02-21T07:16:59;23.13;;;9.32;;
84796;SDS011;75028;51.374;21.078;2024-02-21T07:19:25;26.55;;;11.18;;
84796;SDS011;75028;51.374;21.078;2024-02-21T07:24:17;21.73;;;10.40;;
84796;SDS011;75028;51.374;21.078;2024-02-21T07:26:43;26.48;;;9.43;;
84796;SDS011;75028;51.374;21.078;2024-02-21T07:29:10;24.10;;;9.10;;
84796;SDS011;75028;51.374;21.078;2024-02-21T07:31:42;26.55;;;10.07;;
84796;SDS011;75028;51.374;21.078;2024-02-21T07:34:09;25.00;;;8.95;;
84796;SDS011;75028;51.374;21.078;2024-02-21T07:36:36;25.05;;;10.15;;
84796;SDS011;75028;51.374;21.078;2024-02-21T07:39:05;20.33;;;10.90;;
84796;SDS011;75028;51.374;21.078;2024-02-21T07:41:32;25.27;;;9.30;;
84796;SDS011;75028;51.374;21.078;2024-02-21T07:43:59;23.15;;;10.32;;
84796;SDS011;75028;51.374;21.078;2024-02-21T07:46:25;19.05;;;8.70;;
84796;SDS011;75028;51.374;21.078;2024-02-21T07:48:51;22.42;;;9.00;;
84796;SDS011;75028;51.374;21.078;2024-02-21T07:51:17;25.08;;;9.60;;
84796;SDS011;75028;51.374;21.078;2024-02-21T07:53:44;27.05;;;10.43;;
84796;SDS011;75028;51.374;21.078;2024-02-21T07:56:12;20.90;;;9.07;;
84796;SDS011;75028;51.374;21.078;2024-02-21T07:58:38;28.63;;;9.93;;
84796;SDS011;75028;51.374;21.078;2024-02-21T08:03:30;24.38;;;10.18;;
84796;SDS011;75028;51.374;21.078;2024-02-21T08:05:56;31.30;;;10.95;;
84796;SDS011;75028;51.374;21.078;2024-02-21T08:08:22;33.42;;;11.48;;
84796;SDS011;75028;51.374;21.078;2024-02-21T08:10:48;26.88;;;10.00;;
84796;SDS011;75028;51.374;21.078;2024-02-21T08:13:14;31.55;;;12.52;;
84796;SDS011;75028;51.374;21.078;2024-02-21T08:15:41;23.02;;;9.57;;
84796;SDS011;75028;51.374;21.078;2024-02-21T08:20:33;19.70;;;9.77;;
84796;SDS011;75028;51.374;21.078;2024-02-21T08:22:59;16.75;;;9.85;;
84796;SDS011;75028;51.374;21.078;2024-02-21T08:25:26;27.25;;;11.30;;
84796;SDS011;75028;51.374;21.078;2024-02-21T08:27:55;22.58;;;9.70;;
84796;SDS011;75028;51.374;21.078;2024-02-21T08:30:23;21.38;;;8.98;;
84796;SDS011;75028;51.374;21.078;2024-02-21T08:32:49;22.45;;;9.73;;
84796;SDS011;75028;51.374;21.078;2024-02-21T08:35:15;21.20;;;7.93;;
84796;SDS011;75028;51.374;21.078;2024-02-21T08:37:43;29.95;;;8.43;;
84796;SDS011;75028;51.374;21.078;2024-02-21T08:40:13;22.25;;;8.63;;
84796;SDS011;75028;51.374;21.078;2024-02-21T08:42:43;28.52;;;9.07;;
84796;SDS011;75028;51.374;21.078;2024-02-21T08:45:09;22.75;;;9.05;;
84796;SDS011;75028;51.374;21.078;2024-02-21T08:47:36;24.48;;;9.55;;
84796;SDS011;75028;51.374;21.078;2024-02-21T08:50:05;25.08;;;9.40;;
84796;SDS011;75028;51.374;21.078;2024-02-21T08:52:31;21.98;;;8.23;;
84796;SDS011;75028;51.374;21.078;2024-02-21T08:54:58;21.73;;;8.77;;
84796;SDS011;75028;51.374;21.078;2024-02-21T08:57:24;25.00;;;8.68;;
84796;SDS011;75028;51.374;21.078;2024-02-21T08:59:50;18.48;;;8.70;;
84796;SDS011;75028;51.374;21.078;2024-02-21T09:02:16;24.15;;;8.93;;
84796;SDS011;75028;51.374;21.078;2024-02-21T09:04:43;20.70;;;9.68;;
84796;SDS011;75028;51.374;21.078;2024-02-21T09:07:11;21.35;;;8.77;;
84796;SDS011;75028;51.374;21.078;2024-02-21T09:12:06;24.85;;;7.90;;
84796;SDS011;75028;51.374;21.078;2024-02-21T09:14:33;19.00;;;7.85;;
84796;SDS011;75028;51.374;21.078;2024-02-21T09:16:59;27.05;;;10.00;;
84796;SDS011;75028;51.374;21.078;2024-02-21T09:19:26;19.00;;;7.63;;
84796;SDS011;75028;51.374;21.078;2024-02-21T09:21:51;18.48;;;8.40;;
84796;SDS011;75028;51.374;21.078;2024-02-21T09:24:18;19.80;;;8.48;;
84796;SDS011;75028;51.374;21.078;2024-02-21T09:26:44;18.23;;;7.65;;
84796;SDS011;75028;51.374;21.078;2024-02-21T09:31:36;21.83;;;7.03;;
84796;SDS011;75028;51.374;21.078;2024-02-21T09:34:04;18.75;;;7.85;;
84796;SDS011;75028;51.374;21.078;2024-02-21T09:36:30;23.88;;;8.60;;
84796;SDS011;75028;51.374;21.078;2024-02-21T09:38:56;15.13;;;7.28;;
84796;SDS011;75028;51.374;21.078;2024-02-21T09:41:26;17.77;;;6.95;;
84796;SDS011;75028;51.374;21.078;2024-02-21T09:43:56;20.27;;;7.40;;
84796;SDS011;75028;51.374;21.078;2024-02-21T09:46:33;14.07;;;6.22;;
84796;SDS011;75028;51.374;21.078;2024-02-21T09:52:00;16.95;;;6.90;;
84796;SDS011;75028;51.374;21.078;2024-02-21T09:54:29;21.65;;;7.07;;
84796;SDS011;75028;51.374;21.078;2024-02-21T09:56:58;14.15;;;6.03;;
84796;SDS011;75028;51.374;21.078;2024-02-21T09:59:26;12.60;;;5.90;;
84796;SDS011;75028;51.374;21.078;2024-02-21T10:01:53;18.40;;;6.45;;
84796;SDS011;75028;51.374;21.078;2024-02-21T10:04:20;16.23;;;5.97;;
84796;SDS011;75028;51.374;21.078;2024-02-21T10:06:46;17.17;;;5.93;;
84796;SDS011;75028;51.374;21.078;2024-02-21T10:09:23;16.88;;;6.57;;
84796;SDS011;75028;51.374;21.078;2024-02-21T10:11:49;14.13;;;7.57;;
84796;SDS011;75028;51.374;21.078;2024-02-21T10:14:17;14.85;;;6.95;;
84796;SDS011;75028;51.374;21.078;2024-02-21T10:16:44;20.40;;;6.53;;
84796;SDS011;75028;51.374;21.078;2024-02-21T10:19:16;16.45;;;5.90;;
84796;SDS011;75028;51.374;21.078;2024-02-21T10:24:46;17.23;;;6.82;;
84796;SDS011;75028;51.374;21.078;2024-02-21T10:27:12;17.92;;;7.35;;
84796;SDS011;75028;51.374;21.078;2024-02-21T10:32:08;19.00;;;6.28;;
84796;SDS011;75028;51.374;21.078;2024-02-21T10:34:35;21.25;;;6.18;;
84796;SDS011;75028;51.374;21.078;2024-02-21T10:37:02;19.05;;;6.10;;
84796;SDS011;75028;51.374;21.078;2024-02-21T10:39:33;12.10;;;4.90;;
84796;SDS011;75028;51.374;21.078;2024-02-21T10:42:00;15.40;;;5.93;;
84796;SDS011;75028;51.374;21.078;2024-02-21T10:44:30;11.70;;;5.15;;
84796;SDS011;75028;51.374;21.078;2024-02-21T10:46:57;13.10;;;6.28;;
84796;SDS011;75028;51.374;21.078;2024-02-21T10:49:27;16.58;;;5.50;;
84796;SDS011;75028;51.374;21.078;2024-02-21T10:52:14;15.32;;;6.07;;
84796;SDS011;75028;51.374;21.078;2024-02-21T10:54:58;13.80;;;5.68;;
84796;SDS011;75028;51.374;21.078;2024-02-21T10:57:31;14.95;;;6.70;;
84796;SDS011;75028;51.374;21.078;2024-02-21T10:59:58;13.35;;;6.40;;
84796;SDS011;75028;51.374;21.078;2024-02-21T11:02:25;11.35;;;5.80;;
84796;SDS011;75028;51.374;21.078;2024-02-21T11:04:55;16.10;;;5.95;;
84796;SDS011;75028;51.374;21.078;2024-02-21T11:07:23;16.63;;;6.38;;
84796;SDS011;75028;51.374;21.078;2024-02-21T11:09:53;17.73;;;6.50;;
84796;SDS011;75028;51.374;21.078;2024-02-21T11:12:21;15.52;;;6.00;;
84796;SDS011;75028;51.374;21.078;2024-02-21T11:14:48;16.60;;;6.43;;
84796;SDS011;75028;51.374;21.078;2024-02-21T11:17:14;14.80;;;5.53;;
84796;SDS011;75028;51.374;21.078;2024-02-21T11:19:44;15.27;;;5.65;;
84796;SDS011;75028;51.374;21.078;2024-02-21T11:22:14;15.07;;;5.80;;
84796;SDS011;75028;51.374;21.078;2024-02-21T11:24:45;22.33;;;7.47;;
84796;SDS011;75028;51.374;21.078;2024-02-21T11:27:12;14.27;;;8.07;;
84796;SDS011;75028;51.374;21.078;2024-02-21T11:29:45;19.45;;;7.90;;
84796;SDS011;75028;51.374;21.078;2024-02-21T11:32:15;20.38;;;9.05;;
84796;SDS011;75028;51.374;21.078;2024-02-21T11:37:31;15.80;;;6.70;;
84796;SDS011;75028;51.374;21.078;2024-02-21T11:40:02;17.95;;;7.25;;
84796;SDS011;75028;51.374;21.078;2024-02-21T11:42:29;15.65;;;6.85;;
84796;SDS011;75028;51.374;21.078;2024-02-21T11:44:56;15.40;;;6.97;;
84796;SDS011;75028;51.374;21.078;2024-02-21T11:47:23;18.95;;;7.25;;
84796;SDS011;75028;51.374;21.078;2024-02-21T11:49:49;22.02;;;7.40;;
84796;SDS011;75028;51.374;21.078;2024-02-21T11:52:21;16.80;;;7.68;;
84796;SDS011;75028;51.374;21.078;2024-02-21T11:54:51;28.08;;;9.57;;
84796;SDS011;75028;51.374;21.078;2024-02-21T11:57:22;29.42;;;11.50;;
84796;SDS011;75028;51.374;21.078;2024-02-21T12:02:17;23.42;;;7.55;;
84796;SDS011;75028;51.374;21.078;2024-02-21T12:04:44;14.43;;;6.15;;
84796;SDS011;75028;51.374;21.078;2024-02-21T12:07:10;15.75;;;6.70;;
84796;SDS011;75028;51.374;21.078;2024-02-21T12:09:37;16.70;;;6.35;;
84796;SDS011;75028;51.374;21.078;2024-02-21T12:12:05;22.00;;;7.22;;
84796;SDS011;75028;51.374;21.078;2024-02-21T12:14:33;19.48;;;9.35;;
84796;SDS011;75028;51.374;21.078;2024-02-21T12:17:00;24.20;;;10.93;;
84796;SDS011;75028;51.374;21.078;2024-02-21T12:19:30;21.65;;;10.10;;
84796;SDS011;75028;51.374;21.078;2024-02-21T12:22:00;22.83;;;9.25;;
84796;SDS011;75028;51.374;21.078;2024-02-21T12:24:27;23.92;;;7.38;;
84796;SDS011;75028;51.374;21.078;2024-02-21T12:26:55;25.02;;;8.60;;
84796;SDS011;75028;51.374;21.078;2024-02-21T12:29:23;24.90;;;9.32;;
84796;SDS011;75028;51.374;21.078;2024-02-21T12:31:52;26.75;;;9.82;;
84796;SDS011;75028;51.374;21.078;2024-02-21T12:34:20;23.00;;;9.50;;
84796;SDS011;75028;51.374;21.078;2024-02-21T12:36:47;20.98;;;8.00;;
84796;SDS011;75028;51.374;21.078;2024-02-21T12:39:13;18.85;;;7.95;;
84796;SDS011;75028;51.374;21.078;2024-02-21T12:44:06;19.63;;;7.00;;
84796;SDS011;75028;51.374;21.078;2024-02-21T12:46:34;17.40;;;6.95;;
84796;SDS011;75028;51.374;21.078;2024-02-21T12:49:01;18.25;;;7.93;;
84796;SDS011;75028;51.374;21.078;2024-02-21T12:51:28;13.68;;;6.22;;
84796;SDS011;75028;51.374;21.078;2024-02-21T12:53:55;17.48;;;6.80;;
84796;SDS011;75028;51.374;21.078;2024-02-21T12:56:21;14.70;;;6.20;;
84796;SDS011;75028;51.374;21.078;2024-02-21T13:01:14;19.40;;;7.53;;
84796;SDS011;75028;51.374;21.078;2024-02-21T13:06:06;18.45;;;6.93;;
84796;SDS011;75028;51.374;21.078;2024-02-21T13:08:36;20.83;;;7.35;;
84796;SDS011;75028;51.374;21.078;2024-02-21T13:11:03;21.60;;;7.35;;
84796;SDS011;75028;51.374;21.078;2024-02-21T13:13:30;20.27;;;8.05;;
84796;SDS011;75028;51.374;21.078;2024-02-21T13:15:57;19.38;;;7.38;;
84796;SDS011;75028;51.374;21.078;2024-02-21T13:18:24;22.48;;;7.68;;
84796;SDS011;75028;51.374;21.078;2024-02-21T13:20:51;21.75;;;8.70;;
84796;SDS011;75028;51.374;21.078;2024-02-21T13:23:17;21.20;;;9.02;;
84796;SDS011;75028;51.374;21.078;2024-02-21T13:25:43;20.70;;;8.63;;
84796;SDS011;75028;51.374;21.078;2024-02-21T13:28:11;28.67;;;9.50;;
84796;SDS011;75028;51.374;21.078;2024-02-21T13:30:37;24.50;;;8.93;;
84796;SDS011;75028;51.374;21.078;2024-02-21T13:35:29;25.00;;;9.90;;
84796;SDS011;75028;51.374;21.078;2024-02-21T13:37:55;23.15;;;9.48;;
84796;SDS011;75028;51.374;21.078;2024-02-21T13:40:21;26.27;;;9.50;;
84796;SDS011;75028;51.374;21.078;2024-02-21T13:42:47;18.48;;;8.50;;
84796;SDS011;75028;51.374;21.078;2024-02-21T13:45:15;18.75;;;8.82;;
84796;SDS011;75028;51.374;21.078;2024-02-21T13:50:07;23.30;;;8.77;;
84796;SDS011;75028;51.374;21.078;2024-02-21T13:52:37;19.83;;;7.97;;
84796;SDS011;75028;51.374;21.078;2024-02-21T13:55:03;29.05;;;8.70;;
84796;SDS011;75028;51.374;21.078;2024-02-21T13:57:30;21.45;;;8.88;;
84796;SDS011;75028;51.374;21.078;2024-02-21T13:59:56;25.88;;;10.30;;
84796;SDS011;75028;51.374;21.078;2024-02-21T14:02:22;22.52;;;10.20;;
84796;SDS011;75028;51.374;21.078;2024-02-21T14:04:48;22.80;;;11.13;;
84796;SDS011;75028;51.374;21.078;2024-02-21T14:09:40;26.00;;;10.43;;
84796;SDS011;75028;51.374;21.078;2024-02-21T14:12:06;27.58;;;11.07;;
84796;SDS011;75028;51.374;21.078;2024-02-21T14:14:36;19.88;;;9.52;;
84796;SDS011;75028;51.374;21.078;2024-02-21T14:17:03;20.52;;;10.45;;
84796;SDS011;75028;51.374;21.078;2024-02-21T14:19:29;21.05;;;10.40;;
84796;SDS011;75028;51.374;21.078;2024-02-21T14:21:56;21.60;;;11.18;;
84796;SDS011;75028;51.374;21.078;2024-02-21T14:24:22;25.08;;;11.18;;
84796;SDS011;75028;51.374;21.078;2024-02-21T14:26:49;26.55;;;10.55;;
84796;SDS011;75028;51.374;21.078;2024-02-21T14:29:15;30.83;;;12.35;;
84796;SDS011;75028;51.374;21.078;2024-02-21T14:31:42;24.60;;;11.48;;
84796;SDS011;75028;51.374;21.078;2024-02-21T14:36:34;22.52;;;10.30;;
84796;SDS011;75028;51.374;21.078;2024-02-21T14:39:00;32.50;;;11.75;;
84796;SDS011;75028;51.374;21.078;2024-02-21T14:41:26;27.80;;;11.63;;
84796;SDS011;75028;51.374;21.078;2024-02-21T14:43:53;26.98;;;11.57;;
84796;SDS011;75028;51.374;21.078;2024-02-21T14:46:21;30.77;;;12.85;;
84796;SDS011;75028;51.374;21.078;2024-02-21T14:48:47;34.78;;;13.25;;
84796;SDS011;75028;51.374;21.078;2024-02-21T14:53:39;27.27;;;12.25;;
84796;SDS011;75028;51.374;21.078;2024-02-21T14:56:12;26.02;;;12.25;;
84796;SDS011;75028;51.374;21.078;2024-02-21T14:58:38;25.88;;;11.40;;
84796;SDS011;75028;51.374;21.078;2024-02-21T15:01:05;24.33;;;10.77;;
84796;SDS011;75028;51.374;21.078;2024-02-21T15:03:34;25.88;;;10.63;;
84796;SDS011;75028;51.374;21.078;2024-02-21T15:06:00;27.30;;;11.00;;
84796;SDS011;75028;51.374;21.078;2024-02-21T15:08:27;19.02;;;9.30;;
84796;SDS011;75028;51.374;21.078;2024-02-21T15:10:54;22.58;;;9.45;;
84796;SDS011;75028;51.374;21.078;2024-02-21T15:13:20;24.15;;;10.80;;
84796;SDS011;75028;51.374;21.078;2024-02-21T15:15:48;27.52;;;11.10;;
84796;SDS011;75028;51.374;21.078;2024-02-21T15:18:14;30.25;;;10.90;;
84796;SDS011;75028;51.374;21.078;2024-02-21T15:20:41;25.45;;;10.07;;
84796;SDS011;75028;51.374;21.078;2024-02-21T15:23:07;22.90;;;10.50;;
84796;SDS011;75028;51.374;21.078;2024-02-21T15:27:59;26.70;;;11.73;;
84796;SDS011;75028;51.374;21.078;2024-02-21T15:30:25;28.95;;;11.63;;
84796;SDS011;75028;51.374;21.078;2024-02-21T15:32:52;31.65;;;12.88;;
84796;SDS011;75028;51.374;21.078;2024-02-21T15:35:21;31.95;;;12.25;;
84796;SDS011;75028;51.374;21.078;2024-02-21T15:37:47;29.80;;;12.98;;
84796;SDS011;75028;51.374;21.078;2024-02-21T15:40:13;30.75;;;13.32;;
84796;SDS011;75028;51.374;21.078;2024-02-21T15:42:40;19.20;;;11.38;;
84796;SDS011;75028;51.374;21.078;2024-02-21T15:45:06;31.45;;;13.55;;
84796;SDS011;75028;51.374;21.078;2024-02-21T15:47:32;27.98;;;13.60;;
84796;SDS011;75028;51.374;21.078;2024-02-21T15:49:58;31.08;;;14.75;;
84796;SDS011;75028;51.374;21.078;2024-02-21T15:52:26;26.20;;;12.13;;